sensor_id;sensor_type;location;lat;lon;timestamp;temperature;humidity
52495;DHT22;38405;53.212;5.660;2024-02-28T00:00:25;3.10;99.90
52495;DHT22;38405;53.212;5.660;2024-02-28T00:02:51;3.00;99.90
52495;DHT22;38405;53.212;5.660;2024-02-28T00:05:16;3.00;99.90
52495;DHT22;38405;53.212;5.660;2024-02-28T00:07:42;2.90;99.90
52495;DHT22;38405;53.212;5.660;2024-02-28T00:10:08;3.00;99.90
52495;DHT22;38405;53.212;5.660;2024-02-28T00:12:34;3.00;99.90
52495;DHT22;38405;53.212;5.660;2024-02-28T00:15:00;2.90;99.90
52495;DHT22;38405;53.212;5.660;2024-02-28T00:17:26;2.90;99.90
52495;DHT22;38405;53.212;5.660;2024-02-28T00:19:51;2.90;99.90
52495;DHT22;38405;53.212;5.660;2024-02-28T00:22:17;2.90;99.90
52495;DHT22;38405;53.212;5.660;2024-02-28T00:24:42;2.80;99.90
52495;DHT22;38405;53.212;5.660;2024-02-28T00:27:08;2.80;99.90
52495;DHT22;38405;53.212;5.660;2024-02-28T00:29:34;2.80;99.90
52495;DHT22;38405;53.212;5.660;2024-02-28T00:31:59;2.70;99.90
52495;DHT22;38405;53.212;5.660;2024-02-28T00:34:25;2.80;99.90
52495;DHT22;38405;53.212;5.660;2024-02-28T00:36:51;2.80;99.90
52495;DHT22;38405;53.212;5.660;2024-02-28T00:39:17;2.90;99.90
52495;DHT22;38405;53.212;5.660;2024-02-28T00:41:43;2.90;99.90
52495;DHT22;38405;53.212;5.660;2024-02-28T00:44:08;2.90;99.90
52495;DHT22;38405;53.212;5.660;2024-02-28T00:46:34;2.90;99.90
52495;DHT22;38405;53.212;5.660;2024-02-28T00:49:00;2.90;99.90
52495;DHT22;38405;53.212;5.660;2024-02-28T00:51:25;3.00;99.90
52495;DHT22;38405;53.212;5.660;2024-02-28T00:53:51;3.00;99.90
52495;DHT22;38405;53.212;5.660;2024-02-28T00:56:17;3.00;99.90
52495;DHT22;38405;53.212;5.660;2024-02-28T00:58:44;3.00;99.90
52495;DHT22;38405;53.212;5.660;2024-02-28T01:01:10;3.00;99.90
52495;DHT22;38405;53.212;5.660;2024-02-28T01:03:35;3.10;99.90
52495;DHT22;38405;53.212;5.660;2024-02-28T01:06:01;3.10;99.90
52495;DHT22;38405;53.212;5.660;2024-02-28T01:08:29;3.10;99.90
52495;DHT22;38405;53.212;5.660;2024-02-28T01:10:54;3.10;99.90
52495;DHT22;38405;53.212;5.660;2024-02-28T01:13:20;3.10;99.90
52495;DHT22;38405;53.212;5.660;2024-02-28T01:15:46;3.10;99.90
52495;DHT22;38405;53.212;5.660;2024-02-28T01:18:12;3.20;99.90
52495;DHT22;38405;53.212;5.660;2024-02-28T01:20:37;3.20;99.90
52495;DHT22;38405;53.212;5.660;2024-02-28T01:23:03;3.10;99.90
52495;DHT22;38405;53.212;5.660;2024-02-28T01:25:29;3.20;99.90
52495;DHT22;38405;53.212;5.660;2024-02-28T01:27:56;3.20;99.90
52495;DHT22;38405;53.212;5.660;2024-02-28T01:30:23;3.20;99.90
52495;DHT22;38405;53.212;5.660;2024-02-28T01:32:49;3.20;99.90
52495;DHT22;38405;53.212;5.660;2024-02-28T01:35:15;3.30;99.90
52495;DHT22;38405;53.212;5.660;2024-02-28T01:37:40;3.10;99.90
52495;DHT22;38405;53.212;5.660;2024-02-28T01:40:07;3.70;99.90
52495;DHT22;38405;53.212;5.660;2024-02-28T01:42:32;3.20;99.90
52495;DHT22;38405;53.212;5.660;2024-02-28T01:44:58;3.10;99.90
52495;DHT22;38405;53.212;5.660;2024-02-28T01:47:24;3.30;99.90
52495;DHT22;38405;53.212;5.660;2024-02-28T01:49:50;3.20;99.90
52495;DHT22;38405;53.212;5.660;2024-02-28T01:52:16;3.20;99.90
52495;DHT22;38405;53.212;5.660;2024-02-28T01:54:43;3.30;99.90
52495;DHT22;38405;53.212;5.660;2024-02-28T01:57:09;3.30;99.90
52495;DHT22;38405;53.212;5.660;2024-02-28T01:59:36;3.30;99.90
52495;DHT22;38405;53.212;5.660;2024-02-28T02:02:02;3.40;99.90
52495;DHT22;38405;53.212;5.660;2024-02-28T02:04:28;3.50;99.90
52495;DHT22;38405;53.212;5.660;2024-02-28T02:06:55;3.40;99.90
52495;DHT22;38405;53.212;5.660;2024-02-28T02:09:24;3.50;99.90
52495;DHT22;38405;53.212;5.660;2024-02-28T02:11:49;3.40;99.90
52495;DHT22;38405;53.212;5.660;2024-02-28T02:14:15;3.50;99.90
52495;DHT22;38405;53.212;5.660;2024-02-28T02:16:40;3.50;99.90
52495;DHT22;38405;53.212;5.660;2024-02-28T02:19:10;3.70;99.90
52495;DHT22;38405;53.212;5.660;2024-02-28T02:21:47;3.70;99.90
52495;DHT22;38405;53.212;5.660;2024-02-28T02:24:14;3.70;99.90
52495;DHT22;38405;53.212;5.660;2024-02-28T02:26:39;3.70;99.90
52495;DHT22;38405;53.212;5.660;2024-02-28T02:29:05;3.80;99.90
52495;DHT22;38405;53.212;5.660;2024-02-28T02:31:31;3.90;99.90
52495;DHT22;38405;53.212;5.660;2024-02-28T02:33:56;3.80;99.90
52495;DHT22;38405;53.212;5.660;2024-02-28T02:36:22;3.80;99.90
52495;DHT22;38405;53.212;5.660;2024-02-28T02:38:48;3.80;99.90
52495;DHT22;38405;53.212;5.660;2024-02-28T02:41:13;3.90;99.90
52495;DHT22;38405;53.212;5.660;2024-02-28T02:43:39;4.60;99.90
52495;DHT22;38405;53.212;5.660;2024-02-28T02:46:04;3.90;99.90
52495;DHT22;38405;53.212;5.660;2024-02-28T02:48:30;3.90;99.90
52495;DHT22;38405;53.212;5.660;2024-02-28T02:50:56;3.90;99.90
52495;DHT22;38405;53.212;5.660;2024-02-28T02:53:21;4.00;99.90
52495;DHT22;38405;53.212;5.660;2024-02-28T02:55:47;3.90;99.90
52495;DHT22;38405;53.212;5.660;2024-02-28T02:58:12;3.90;99.90
52495;DHT22;38405;53.212;5.660;2024-02-28T03:00:38;3.90;99.90
52495;DHT22;38405;53.212;5.660;2024-02-28T03:03:04;4.00;99.90
52495;DHT22;38405;53.212;5.660;2024-02-28T03:05:31;4.00;99.90
52495;DHT22;38405;53.212;5.660;2024-02-28T03:07:56;4.00;99.90
52495;DHT22;38405;53.212;5.660;2024-02-28T03:10:22;4.10;99.90
52495;DHT22;38405;53.212;5.660;2024-02-28T03:12:47;4.10;99.90
52495;DHT22;38405;53.212;5.660;2024-02-28T03:15:13;4.20;99.90
52495;DHT22;38405;53.212;5.660;2024-02-28T03:17:39;4.00;99.90
52495;DHT22;38405;53.212;5.660;2024-02-28T03:20:05;4.00;99.90
52495;DHT22;38405;53.212;5.660;2024-02-28T03:22:32;4.00;99.90
52495;DHT22;38405;53.212;5.660;2024-02-28T03:24:58;4.20;99.90
52495;DHT22;38405;53.212;5.660;2024-02-28T03:27:24;4.20;99.90
52495;DHT22;38405;53.212;5.660;2024-02-28T03:29:50;4.10;99.90
52495;DHT22;38405;53.212;5.660;2024-02-28T03:32:15;4.20;99.90
52495;DHT22;38405;53.212;5.660;2024-02-28T03:34:41;4.20;99.90
52495;DHT22;38405;53.212;5.660;2024-02-28T03:37:06;4.20;99.90
52495;DHT22;38405;53.212;5.660;2024-02-28T03:39:32;4.30;99.90
52495;DHT22;38405;53.212;5.660;2024-02-28T03:41:58;4.40;99.90
52495;DHT22;38405;53.212;5.660;2024-02-28T03:44:23;4.20;99.90
52495;DHT22;38405;53.212;5.660;2024-02-28T03:46:51;4.40;99.90
52495;DHT22;38405;53.212;5.660;2024-02-28T03:49:16;4.50;99.90
52495;DHT22;38405;53.212;5.660;2024-02-28T03:51:42;4.60;99.90
52495;DHT22;38405;53.212;5.660;2024-02-28T03:54:08;4.40;99.90
52495;DHT22;38405;53.212;5.660;2024-02-28T03:56:34;4.50;99.90
52495;DHT22;38405;53.212;5.660;2024-02-28T03:59:01;4.70;99.90
52495;DHT22;38405;53.212;5.660;2024-02-28T04:01:26;4.90;99.90
52495;DHT22;38405;53.212;5.660;2024-02-28T04:03:52;4.60;99.90
52495;DHT22;38405;53.212;5.660;2024-02-28T04:06:18;4.70;99.90
52495;DHT22;38405;53.212;5.660;2024-02-28T04:08:43;4.60;99.90
52495;DHT22;38405;53.212;5.660;2024-02-28T04:11:09;4.80;99.90
52495;DHT22;38405;53.212;5.660;2024-02-28T04:13:35;4.70;99.90
52495;DHT22;38405;53.212;5.660;2024-02-28T04:16:02;4.80;99.90
52495;DHT22;38405;53.212;5.660;2024-02-28T04:18:28;4.80;99.90
52495;DHT22;38405;53.212;5.660;2024-02-28T04:20:55;4.90;99.90
52495;DHT22;38405;53.212;5.660;2024-02-28T04:23:20;5.00;99.90
52495;DHT22;38405;53.212;5.660;2024-02-28T04:25:46;5.00;99.90
52495;DHT22;38405;53.212;5.660;2024-02-28T04:28:12;5.00;99.90
52495;DHT22;38405;53.212;5.660;2024-02-28T04:30:37;5.10;99.90
52495;DHT22;38405;53.212;5.660;2024-02-28T04:33:03;5.10;99.90
52495;DHT22;38405;53.212;5.660;2024-02-28T04:35:29;5.10;99.90
52495;DHT22;38405;53.212;5.660;2024-02-28T04:37:55;5.00;99.90
52495;DHT22;38405;53.212;5.660;2024-02-28T04:40:20;5.10;99.90
52495;DHT22;38405;53.212;5.660;2024-02-28T04:42:46;5.00;99.90
52495;DHT22;38405;53.212;5.660;2024-02-28T04:45:11;5.20;99.90
52495;DHT22;38405;53.212;5.660;2024-02-28T04:47:37;5.30;99.90
52495;DHT22;38405;53.212;5.660;2024-02-28T04:50:04;5.20;99.90
52495;DHT22;38405;53.212;5.660;2024-02-28T04:52:31;5.20;99.90
52495;DHT22;38405;53.212;5.660;2024-02-28T04:54:56;5.10;99.90
52495;DHT22;38405;53.212;5.660;2024-02-28T04:57:22;5.20;99.90
52495;DHT22;38405;53.212;5.660;2024-02-28T04:59:48;5.20;99.90
52495;DHT22;38405;53.212;5.660;2024-02-28T05:02:14;5.30;99.90
52495;DHT22;38405;53.212;5.660;2024-02-28T05:04:40;5.10;99.90
52495;DHT22;38405;53.212;5.660;2024-02-28T05:07:06;5.20;99.90
52495;DHT22;38405;53.212;5.660;2024-02-28T05:09:33;5.30;99.90
52495;DHT22;38405;53.212;5.660;2024-02-28T05:11:59;5.30;99.90
52495;DHT22;38405;53.212;5.660;2024-02-28T05:14:25;5.30;99.90
52495;DHT22;38405;53.212;5.660;2024-02-28T05:16:50;5.20;99.90
52495;DHT22;38405;53.212;5.660;2024-02-28T05:19:16;5.40;99.90
52495;DHT22;38405;53.212;5.660;2024-02-28T05:21:45;5.20;99.90
52495;DHT22;38405;53.212;5.660;2024-02-28T05:24:11;5.30;99.90
52495;DHT22;38405;53.212;5.660;2024-02-28T05:26:37;5.70;99.90
52495;DHT22;38405;53.212;5.660;2024-02-28T05:29:04;5.40;99.90
52495;DHT22;38405;53.212;5.660;2024-02-28T05:31:30;5.40;99.90
52495;DHT22;38405;53.212;5.660;2024-02-28T05:34:00;5.30;99.90
52495;DHT22;38405;53.212;5.660;2024-02-28T05:36:27;5.40;99.90
52495;DHT22;38405;53.212;5.660;2024-02-28T05:38:54;5.40;99.90
52495;DHT22;38405;53.212;5.660;2024-02-28T05:41:20;5.50;99.90
52495;DHT22;38405;53.212;5.660;2024-02-28T05:43:46;5.40;99.90
52495;DHT22;38405;53.212;5.660;2024-02-28T05:46:12;5.30;99.90
52495;DHT22;38405;53.212;5.660;2024-02-28T05:48:40;5.30;99.90
52495;DHT22;38405;53.212;5.660;2024-02-28T05:51:06;5.20;99.90
52495;DHT22;38405;53.212;5.660;2024-02-28T05:53:32;5.50;99.90
52495;DHT22;38405;53.212;5.660;2024-02-28T05:56:01;5.30;99.90
52495;DHT22;38405;53.212;5.660;2024-02-28T05:58:27;5.30;99.90
52495;DHT22;38405;53.212;5.660;2024-02-28T06:00:52;5.90;99.90
52495;DHT22;38405;53.212;5.660;2024-02-28T06:03:18;5.30;99.90
52495;DHT22;38405;53.212;5.660;2024-02-28T06:05:44;5.50;99.90
52495;DHT22;38405;53.212;5.660;2024-02-28T06:08:09;5.40;99.90
52495;DHT22;38405;53.212;5.660;2024-02-28T06:10:35;5.70;99.90
52495;DHT22;38405;53.212;5.660;2024-02-28T06:13:02;5.40;99.90
52495;DHT22;38405;53.212;5.660;2024-02-28T06:15:27;5.60;99.90
52495;DHT22;38405;53.212;5.660;2024-02-28T06:17:53;5.50;99.90
52495;DHT22;38405;53.212;5.660;2024-02-28T06:20:21;5.60;99.90
52495;DHT22;38405;53.212;5.660;2024-02-28T06:22:47;5.50;99.90
52495;DHT22;38405;53.212;5.660;2024-02-28T06:25:12;5.40;99.90
52495;DHT22;38405;53.212;5.660;2024-02-28T06:27:45;5.60;99.90
52495;DHT22;38405;53.212;5.660;2024-02-28T06:30:11;6.00;99.90
52495;DHT22;38405;53.212;5.660;2024-02-28T06:32:38;5.50;99.90
52495;DHT22;38405;53.212;5.660;2024-02-28T06:35:04;5.40;99.90
52495;DHT22;38405;53.212;5.660;2024-02-28T06:37:30;5.40;99.90
52495;DHT22;38405;53.212;5.660;2024-02-28T06:39:56;5.30;99.90
52495;DHT22;38405;53.212;5.660;2024-02-28T06:42:21;5.60;99.90
52495;DHT22;38405;53.212;5.660;2024-02-28T06:44:47;5.30;99.90
52495;DHT22;38405;53.212;5.660;2024-02-28T06:47:13;5.50;99.90
52495;DHT22;38405;53.212;5.660;2024-02-28T06:49:38;5.50;99.90
52495;DHT22;38405;53.212;5.660;2024-02-28T06:52:04;5.60;99.90
52495;DHT22;38405;53.212;5.660;2024-02-28T06:54:30;5.40;99.90
52495;DHT22;38405;53.212;5.660;2024-02-28T06:56:57;5.40;99.90
52495;DHT22;38405;53.212;5.660;2024-02-28T06:59:23;5.40;99.90
52495;DHT22;38405;53.212;5.660;2024-02-28T07:01:49;5.40;99.90
52495;DHT22;38405;53.212;5.660;2024-02-28T07:04:14;5.60;99.90
52495;DHT22;38405;53.212;5.660;2024-02-28T07:06:40;5.60;99.90
52495;DHT22;38405;53.212;5.660;2024-02-28T07:09:08;5.60;99.90
52495;DHT22;38405;53.212;5.660;2024-02-28T07:11:34;5.40;99.90
52495;DHT22;38405;53.212;5.660;2024-02-28T07:14:01;5.50;99.90
52495;DHT22;38405;53.212;5.660;2024-02-28T07:16:31;5.50;99.90
52495;DHT22;38405;53.212;5.660;2024-02-28T07:19:00;5.50;99.90
52495;DHT22;38405;53.212;5.660;2024-02-28T07:21:26;5.60;99.90
52495;DHT22;38405;53.212;5.660;2024-02-28T07:23:52;5.50;99.90
52495;DHT22;38405;53.212;5.660;2024-02-28T07:26:18;5.90;99.90
52495;DHT22;38405;53.212;5.660;2024-02-28T07:28:44;6.00;99.90
52495;DHT22;38405;53.212;5.660;2024-02-28T07:31:18;5.90;99.90
52495;DHT22;38405;53.212;5.660;2024-02-28T07:33:44;6.40;99.90
52495;DHT22;38405;53.212;5.660;2024-02-28T07:36:10;6.10;99.90
52495;DHT22;38405;53.212;5.660;2024-02-28T07:38:36;6.20;99.90
52495;DHT22;38405;53.212;5.660;2024-02-28T07:41:02;6.10;99.90
52495;DHT22;38405;53.212;5.660;2024-02-28T07:43:28;6.30;99.90
52495;DHT22;38405;53.212;5.660;2024-02-28T07:45:54;6.10;99.90
52495;DHT22;38405;53.212;5.660;2024-02-28T07:48:20;6.10;99.90
52495;DHT22;38405;53.212;5.660;2024-02-28T07:50:45;6.30;99.90
52495;DHT22;38405;53.212;5.660;2024-02-28T07:53:12;6.30;99.90
52495;DHT22;38405;53.212;5.660;2024-02-28T07:55:38;6.20;99.90
52495;DHT22;38405;53.212;5.660;2024-02-28T07:58:04;6.30;99.90
52495;DHT22;38405;53.212;5.660;2024-02-28T08:00:32;6.40;99.90
52495;DHT22;38405;53.212;5.660;2024-02-28T08:02:59;6.40;99.90
52495;DHT22;38405;53.212;5.660;2024-02-28T08:05:24;6.20;99.90
52495;DHT22;38405;53.212;5.660;2024-02-28T08:07:50;6.30;99.90
52495;DHT22;38405;53.212;5.660;2024-02-28T08:10:16;6.30;99.90
52495;DHT22;38405;53.212;5.660;2024-02-28T08:12:41;6.40;99.90
52495;DHT22;38405;53.212;5.660;2024-02-28T08:15:07;6.40;99.90
52495;DHT22;38405;53.212;5.660;2024-02-28T08:17:33;6.50;99.90
52495;DHT22;38405;53.212;5.660;2024-02-28T08:19:59;6.40;99.90
52495;DHT22;38405;53.212;5.660;2024-02-28T08:22:25;6.60;99.90
52495;DHT22;38405;53.212;5.660;2024-02-28T08:24:53;6.60;99.90
52495;DHT22;38405;53.212;5.660;2024-02-28T08:27:19;6.80;99.90
52495;DHT22;38405;53.212;5.660;2024-02-28T08:29:46;6.80;99.90
52495;DHT22;38405;53.212;5.660;2024-02-28T08:32:12;6.80;99.90
52495;DHT22;38405;53.212;5.660;2024-02-28T08:34:38;6.90;99.90
52495;DHT22;38405;53.212;5.660;2024-02-28T08:37:04;7.00;99.90
52495;DHT22;38405;53.212;5.660;2024-02-28T08:39:29;7.10;99.90
52495;DHT22;38405;53.212;5.660;2024-02-28T08:41:55;7.10;99.90
52495;DHT22;38405;53.212;5.660;2024-02-28T08:44:21;7.20;99.90
52495;DHT22;38405;53.212;5.660;2024-02-28T08:46:47;7.10;99.90
52495;DHT22;38405;53.212;5.660;2024-02-28T08:49:14;7.10;99.90
52495;DHT22;38405;53.212;5.660;2024-02-28T08:51:40;7.00;99.90
52495;DHT22;38405;53.212;5.660;2024-02-28T08:54:06;7.10;99.90
52495;DHT22;38405;53.212;5.660;2024-02-28T08:56:31;7.20;99.90
52495;DHT22;38405;53.212;5.660;2024-02-28T08:58:58;7.20;99.90
52495;DHT22;38405;53.212;5.660;2024-02-28T09:01:24;7.30;99.90
52495;DHT22;38405;53.212;5.660;2024-02-28T09:03:50;7.30;99.90
52495;DHT22;38405;53.212;5.660;2024-02-28T09:06:16;7.20;99.90
52495;DHT22;38405;53.212;5.660;2024-02-28T09:08:41;7.10;99.90
52495;DHT22;38405;53.212;5.660;2024-02-28T09:11:07;7.30;99.90
52495;DHT22;38405;53.212;5.660;2024-02-28T09:13:33;7.20;99.90
52495;DHT22;38405;53.212;5.660;2024-02-28T09:16:01;7.20;99.90
52495;DHT22;38405;53.212;5.660;2024-02-28T09:18:27;7.00;99.90
52495;DHT22;38405;53.212;5.660;2024-02-28T09:20:53;7.20;99.90
52495;DHT22;38405;53.212;5.660;2024-02-28T09:23:19;7.10;99.90
52495;DHT22;38405;53.212;5.660;2024-02-28T09:25:44;7.30;99.90
52495;DHT22;38405;53.212;5.660;2024-02-28T09:28:10;7.20;99.90
52495;DHT22;38405;53.212;5.660;2024-02-28T09:30:38;7.50;99.90
52495;DHT22;38405;53.212;5.660;2024-02-28T09:33:04;7.80;99.90
52495;DHT22;38405;53.212;5.660;2024-02-28T09:35:30;7.60;99.90
52495;DHT22;38405;53.212;5.660;2024-02-28T09:37:55;7.90;99.90
52495;DHT22;38405;53.212;5.660;2024-02-28T09:40:22;8.00;99.90
52495;DHT22;38405;53.212;5.660;2024-02-28T09:42:53;8.30;99.90
52495;DHT22;38405;53.212;5.660;2024-02-28T09:45:23;8.70;99.90
52495;DHT22;38405;53.212;5.660;2024-02-28T09:47:50;8.40;99.90
52495;DHT22;38405;53.212;5.660;2024-02-28T09:50:17;8.50;99.90
52495;DHT22;38405;53.212;5.660;2024-02-28T09:52:44;8.40;99.90
52495;DHT22;38405;53.212;5.660;2024-02-28T09:55:10;8.30;99.90
52495;DHT22;38405;53.212;5.660;2024-02-28T09:57:36;8.40;99.90
52495;DHT22;38405;53.212;5.660;2024-02-28T10:00:03;8.20;99.90
52495;DHT22;38405;53.212;5.660;2024-02-28T10:02:30;8.20;99.90
52495;DHT22;38405;53.212;5.660;2024-02-28T10:04:57;8.20;99.90
52495;DHT22;38405;53.212;5.660;2024-02-28T10:07:26;8.50;99.90
52495;DHT22;38405;53.212;5.660;2024-02-28T10:09:52;8.90;99.90
52495;DHT22;38405;53.212;5.660;2024-02-28T10:12:18;9.20;99.90
52495;DHT22;38405;53.212;5.660;2024-02-28T10:14:44;9.30;99.90
52495;DHT22;38405;53.212;5.660;2024-02-28T10:17:10;9.30;99.90
52495;DHT22;38405;53.212;5.660;2024-02-28T10:19:36;9.30;99.90
52495;DHT22;38405;53.212;5.660;2024-02-28T10:22:01;9.40;99.90
52495;DHT22;38405;53.212;5.660;2024-02-28T10:24:27;9.40;99.90
52495;DHT22;38405;53.212;5.660;2024-02-28T10:26:53;9.50;99.90
52495;DHT22;38405;53.212;5.660;2024-02-28T10:29:25;9.60;99.90
52495;DHT22;38405;53.212;5.660;2024-02-28T10:31:51;9.70;99.90
52495;DHT22;38405;53.212;5.660;2024-02-28T10:34:17;9.80;99.90
52495;DHT22;38405;53.212;5.660;2024-02-28T10:36:44;10.10;99.90
52495;DHT22;38405;53.212;5.660;2024-02-28T10:39:11;10.30;99.90
52495;DHT22;38405;53.212;5.660;2024-02-28T10:41:41;10.30;99.90
52495;DHT22;38405;53.212;5.660;2024-02-28T10:44:08;10.20;99.90
52495;DHT22;38405;53.212;5.660;2024-02-28T10:46:37;10.10;99.90
52495;DHT22;38405;53.212;5.660;2024-02-28T10:49:04;9.90;99.90
52495;DHT22;38405;53.212;5.660;2024-02-28T10:51:34;9.80;99.90
52495;DHT22;38405;53.212;5.660;2024-02-28T10:54:11;9.60;99.90
52495;DHT22;38405;53.212;5.660;2024-02-28T10:56:37;9.70;99.90
52495;DHT22;38405;53.212;5.660;2024-02-28T10:59:06;9.60;99.90
52495;DHT22;38405;53.212;5.660;2024-02-28T11:01:35;9.70;99.90
52495;DHT22;38405;53.212;5.660;2024-02-28T11:04:03;9.70;99.90
52495;DHT22;38405;53.212;5.660;2024-02-28T11:06:29;9.80;99.90
52495;DHT22;38405;53.212;5.660;2024-02-28T11:08:55;9.80;99.90
52495;DHT22;38405;53.212;5.660;2024-02-28T11:11:22;9.80;99.90
52495;DHT22;38405;53.212;5.660;2024-02-28T11:13:58;9.70;99.90
52495;DHT22;38405;53.212;5.660;2024-02-28T11:16:30;9.50;99.90
52495;DHT22;38405;53.212;5.660;2024-02-28T11:18:56;9.50;99.90
52495;DHT22;38405;53.212;5.660;2024-02-28T11:21:25;9.40;99.90
52495;DHT22;38405;53.212;5.660;2024-02-28T11:23:52;9.50;99.90
52495;DHT22;38405;53.212;5.660;2024-02-28T11:26:18;9.50;99.90
52495;DHT22;38405;53.212;5.660;2024-02-28T11:28:44;9.50;99.90
52495;DHT22;38405;53.212;5.660;2024-02-28T11:31:09;9.50;99.90
52495;DHT22;38405;53.212;5.660;2024-02-28T11:33:38;9.50;99.90
52495;DHT22;38405;53.212;5.660;2024-02-28T11:36:04;9.40;99.90
52495;DHT22;38405;53.212;5.660;2024-02-28T11:38:31;9.20;99.90
52495;DHT22;38405;53.212;5.660;2024-02-28T11:40:57;9.20;99.90
52495;DHT22;38405;53.212;5.660;2024-02-28T11:43:23;9.10;99.90
52495;DHT22;38405;53.212;5.660;2024-02-28T11:45:49;9.10;99.90
52495;DHT22;38405;53.212;5.660;2024-02-28T11:48:15;9.10;99.90
52495;DHT22;38405;53.212;5.660;2024-02-28T11:50:42;9.00;99.90
52495;DHT22;38405;53.212;5.660;2024-02-28T11:53:08;9.00;99.90
52495;DHT22;38405;53.212;5.660;2024-02-28T11:55:34;9.00;99.90
52495;DHT22;38405;53.212;5.660;2024-02-28T11:58:01;9.00;99.90
52495;DHT22;38405;53.212;5.660;2024-02-28T12:00:26;9.00;99.90
52495;DHT22;38405;53.212;5.660;2024-02-28T12:02:52;9.10;99.90
52495;DHT22;38405;53.212;5.660;2024-02-28T12:05:22;9.10;99.90
52495;DHT22;38405;53.212;5.660;2024-02-28T12:07:47;9.10;99.90
52495;DHT22;38405;53.212;5.660;2024-02-28T12:10:13;9.20;99.90
52495;DHT22;38405;53.212;5.660;2024-02-28T12:12:39;9.40;99.90
52495;DHT22;38405;53.212;5.660;2024-02-28T12:15:06;9.40;99.90
52495;DHT22;38405;53.212;5.660;2024-02-28T12:17:32;9.60;99.90
52495;DHT22;38405;53.212;5.660;2024-02-28T12:20:01;9.70;99.90
52495;DHT22;38405;53.212;5.660;2024-02-28T12:22:27;9.70;99.90
52495;DHT22;38405;53.212;5.660;2024-02-28T12:24:53;9.70;99.90
52495;DHT22;38405;53.212;5.660;2024-02-28T12:27:19;9.70;99.90
52495;DHT22;38405;53.212;5.660;2024-02-28T12:29:45;9.60;99.90
52495;DHT22;38405;53.212;5.660;2024-02-28T12:32:10;9.40;99.90
52495;DHT22;38405;53.212;5.660;2024-02-28T12:34:37;9.30;99.90
52495;DHT22;38405;53.212;5.660;2024-02-28T12:37:03;9.30;99.90
52495;DHT22;38405;53.212;5.660;2024-02-28T12:39:30;9.30;99.90
52495;DHT22;38405;53.212;5.660;2024-02-28T12:41:57;9.20;99.90
52495;DHT22;38405;53.212;5.660;2024-02-28T12:44:23;9.20;99.90
52495;DHT22;38405;53.212;5.660;2024-02-28T12:46:48;9.20;99.90
52495;DHT22;38405;53.212;5.660;2024-02-28T12:49:14;9.20;99.90
52495;DHT22;38405;53.212;5.660;2024-02-28T12:51:41;9.30;99.90
52495;DHT22;38405;53.212;5.660;2024-02-28T12:54:10;9.20;99.90
52495;DHT22;38405;53.212;5.660;2024-02-28T12:56:37;9.20;99.90
52495;DHT22;38405;53.212;5.660;2024-02-28T12:59:04;9.30;99.90
52495;DHT22;38405;53.212;5.660;2024-02-28T13:01:31;9.40;99.90
52495;DHT22;38405;53.212;5.660;2024-02-28T13:03:57;9.50;99.90
52495;DHT22;38405;53.212;5.660;2024-02-28T13:06:23;9.50;99.90
52495;DHT22;38405;53.212;5.660;2024-02-28T13:08:48;9.50;99.90
52495;DHT22;38405;53.212;5.660;2024-02-28T13:11:27;9.60;99.90
52495;DHT22;38405;53.212;5.660;2024-02-28T13:13:53;9.60;99.90
52495;DHT22;38405;53.212;5.660;2024-02-28T13:16:19;9.80;99.90
52495;DHT22;38405;53.212;5.660;2024-02-28T13:18:45;9.80;99.90
52495;DHT22;38405;53.212;5.660;2024-02-28T13:21:12;9.70;99.90
52495;DHT22;38405;53.212;5.660;2024-02-28T13:23:38;9.60;99.90
52495;DHT22;38405;53.212;5.660;2024-02-28T13:26:05;9.70;99.90
52495;DHT22;38405;53.212;5.660;2024-02-28T13:28:30;9.60;99.90
52495;DHT22;38405;53.212;5.660;2024-02-28T13:31:00;9.60;99.90
52495;DHT22;38405;53.212;5.660;2024-02-28T13:33:26;9.50;99.90
52495;DHT22;38405;53.212;5.660;2024-02-28T13:35:53;9.50;99.90
52495;DHT22;38405;53.212;5.660;2024-02-28T13:38:20;9.50;99.90
52495;DHT22;38405;53.212;5.660;2024-02-28T13:40:49;9.60;99.90
52495;DHT22;38405;53.212;5.660;2024-02-28T13:43:18;9.60;99.90
52495;DHT22;38405;53.212;5.660;2024-02-28T13:45:47;9.50;99.90
52495;DHT22;38405;53.212;5.660;2024-02-28T13:48:23;9.50;99.90
52495;DHT22;38405;53.212;5.660;2024-02-28T13:50:56;9.50;99.90
52495;DHT22;38405;53.212;5.660;2024-02-28T13:53:22;9.40;99.90
52495;DHT22;38405;53.212;5.660;2024-02-28T13:55:50;9.50;99.90
52495;DHT22;38405;53.212;5.660;2024-02-28T13:58:16;9.50;99.90
52495;DHT22;38405;53.212;5.660;2024-02-28T14:00:45;9.50;99.90
52495;DHT22;38405;53.212;5.660;2024-02-28T14:03:11;9.40;99.90
52495;DHT22;38405;53.212;5.660;2024-02-28T14:05:37;9.40;99.90
52495;DHT22;38405;53.212;5.660;2024-02-28T14:08:03;9.30;99.90
52495;DHT22;38405;53.212;5.660;2024-02-28T14:10:29;9.20;99.90
52495;DHT22;38405;53.212;5.660;2024-02-28T14:12:56;9.20;99.90
52495;DHT22;38405;53.212;5.660;2024-02-28T14:15:22;9.20;99.90
52495;DHT22;38405;53.212;5.660;2024-02-28T14:17:48;9.10;99.90
52495;DHT22;38405;53.212;5.660;2024-02-28T14:20:13;9.10;99.90
52495;DHT22;38405;53.212;5.660;2024-02-28T14:22:40;9.00;99.90
52495;DHT22;38405;53.212;5.660;2024-02-28T14:25:16;9.00;99.90
52495;DHT22;38405;53.212;5.660;2024-02-28T14:27:44;9.00;99.90
52495;DHT22;38405;53.212;5.660;2024-02-28T14:30:11;9.00;99.90
52495;DHT22;38405;53.212;5.660;2024-02-28T14:32:37;9.10;99.90
52495;DHT22;38405;53.212;5.660;2024-02-28T14:35:06;9.10;99.90
52495;DHT22;38405;53.212;5.660;2024-02-28T14:37:34;9.10;99.90
52495;DHT22;38405;53.212;5.660;2024-02-28T14:40:00;9.00;99.90
52495;DHT22;38405;53.212;5.660;2024-02-28T14:42:32;9.00;99.90
52495;DHT22;38405;53.212;5.660;2024-02-28T14:44:58;8.90;99.90
52495;DHT22;38405;53.212;5.660;2024-02-28T14:47:25;8.80;99.90
52495;DHT22;38405;53.212;5.660;2024-02-28T14:49:50;8.70;99.90
52495;DHT22;38405;53.212;5.660;2024-02-28T14:52:16;8.80;99.90
52495;DHT22;38405;53.212;5.660;2024-02-28T14:54:42;8.70;99.90
52495;DHT22;38405;53.212;5.660;2024-02-28T14:57:09;8.70;99.90
52495;DHT22;38405;53.212;5.660;2024-02-28T14:59:35;8.70;99.90
52495;DHT22;38405;53.212;5.660;2024-02-28T15:02:01;8.70;99.90
52495;DHT22;38405;53.212;5.660;2024-02-28T15:04:26;8.70;99.90
52495;DHT22;38405;53.212;5.660;2024-02-28T15:06:52;8.90;99.90
52495;DHT22;38405;53.212;5.660;2024-02-28T15:09:19;8.80;99.90
52495;DHT22;38405;53.212;5.660;2024-02-28T15:11:50;9.10;99.90
52495;DHT22;38405;53.212;5.660;2024-02-28T15:14:16;8.90;99.90
52495;DHT22;38405;53.212;5.660;2024-02-28T15:16:42;9.00;99.90
52495;DHT22;38405;53.212;5.660;2024-02-28T15:19:08;8.90;99.90
52495;DHT22;38405;53.212;5.660;2024-02-28T15:21:34;8.90;99.90
52495;DHT22;38405;53.212;5.660;2024-02-28T15:24:00;8.90;99.90
52495;DHT22;38405;53.212;5.660;2024-02-28T15:26:26;8.90;99.90
52495;DHT22;38405;53.212;5.660;2024-02-28T15:28:51;8.90;99.90
52495;DHT22;38405;53.212;5.660;2024-02-28T15:31:17;9.00;99.90
52495;DHT22;38405;53.212;5.660;2024-02-28T15:33:43;8.90;99.90
52495;DHT22;38405;53.212;5.660;2024-02-28T15:36:08;8.90;99.90
52495;DHT22;38405;53.212;5.660;2024-02-28T15:38:34;8.90;99.90